Date,TemperatureHighF,TemperatureAvgF,TemperatureLowF,DewpointHighF,DewpointAvgF,DewpointLowF,HumidityHigh,HumidityAvg,HumidityLow,PressureMaxIn,PressureMinIn,WindSpeedMaxMPH,WindSpeedAvgMPH,GustSpeedMaxMPH,PrecipitationSumIn
2013-1-1,36.6,32.8,27.3,35.0,31.5,25.8,95,95,94,30.21,29.99,3,0,7,0.02
2013-1-2,35.3,27.5,22.5,28.0,21.9,18.8,94,80,60,30.26,30.16,5,0,10,0.01
2013-1-3,42.1,29.3,22.2,32.9,23.1,18.0,90,78,58,30.43,30.25,9,0,9,0.00
2013-1-4,46.7,34.6,23.8,26.0,22.6,20.0,87,63,38,30.46,30.33,5,0,12,0.00
2013-1-5,35.6,35.6,35.6,22.7,22.7,22.7,59,59,59,30.36,30.36,0,0,0,0.00
2013-1-6,47.7,35.2,26.6,31.1,23.4,19.1,89,63,36,30.36,30.20,3,0,11,0.00
2013-1-7,51.3,37.1,26.9,26.5,23.0,19.7,79,59,32,30.32,30.07,4,1,15,0.00
2013-1-8,58.0,44.2,32.4,44.0,35.4,22.8,91,72,49,30.14,30.00,4,1,13,0.03
2013-1-9,56.5,49.6,46.0,45.8,43.0,39.1,97,79,57,30.27,30.13,12,2,12,0.01
2013-1-10,58.6,50.2,45.4,54.8,47.4,42.3,95,90,80,30.13,29.75,18,2,18,0.06
2013-1-11,66.1,54.1,45.8,45.8,43.6,41.7,89,70,44,29.83,29.69,21,2,21,0.00
2013-1-12,57.0,45.3,31.0,50.5,39.1,28.1,91,80,53,29.89,29.69,13,1,13,0.12
2013-1-13,31.0,24.6,17.8,28.7,19.8,13.2,91,82,67,30.35,29.89,12,2,12,0.00
2013-1-14,35.9,22.8,15.6,20.4,13.6,10.6,83,68,47,30.45,30.31,9,1,9,0.00
2013-1-15,35.9,22.9,17.8,21.6,14.7,11.9,81,71,49,30.32,30.13,10,1,10,0.00
2013-1-16,43.3,31.0,18.4,21.0,16.8,14.0,84,58,36,30.20,30.08,9,1,9,0.00
2013-1-17,51.3,36.8,29.1,33.0,24.2,17.2,81,61,42,30.45,30.16,10,1,10,0.00
2013-1-18,58.9,41.6,27.9,29.6,25.3,21.0,84,56,26,30.46,30.15,14,2,14,0.00
2013-1-19,63.4,50.3,41.8,36.5,31.5,23.5,63,49,33,30.15,30.02,15,2,15,0.00
2013-1-20,63.2,46.8,35.0,36.8,30.6,17.7,75,55,29,30.20,30.05,13,1,13,0.00
2013-1-21,41.8,29.1,22.7,18.5,15.0,11.5,68,57,32,30.35,30.17,9,1,9,0.00
2013-1-23,63.1,52.5,39.3,46.2,39.0,30.9,79,61,46,30.64,30.55,0,0,0,0.02
2013-1-24,44.6,42.3,39.2,38.5,31.5,26.1,80,66,52,30.73,30.54,0,0,0,0.00
2013-1-25,58.0,41.4,35.2,46.8,33.2,28.8,92,74,51,30.68,30.52,0,0,0,0.00
2013-1-26,59.5,45.5,33.7,40.9,29.0,21.2,88,56,32,30.69,30.51,0,0,0,0.00
2013-1-27,51.6,48.5,47.0,46.9,40.2,33.2,84,73,58,30.51,30.44,0,0,0,0.01
2013-1-28,73.0,65.7,57.6,60.3,57.7,52.5,85,76,61,30.34,30.16,26,9,28,0.01
2013-1-29,69.1,62.0,48.5,62.2,57.1,46.7,94,84,75,30.16,29.76,29,8,29,0.01
2013-1-30,48.5,32.3,23.6,46.9,28.3,18.9,95,85,77,30.53,29.87,29,8,29,0.01
2013-1-31,55.1,27.4,18.6,32.2,19.2,10.1,89,72,37,30.89,30.50,18,4,19,0.00
2013-2-1,56.7,28.4,13.8,22.6,11.9,6.2,75,54,21,30.95,30.64,19,4,19,0.00
2013-2-2,61.8,33.2,20.6,32.9,21.7,14.2,87,65,29,30.70,30.61,19,1,19,0.00
2013-2-3,68.8,43.5,29.4,30.9,25.4,19.9,82,54,18,30.74,30.37,14,2,14,0.00
2013-2-4,67.8,53.3,43.1,47.8,35.8,22.6,77,53,35,30.37,30.19,21,5,21,0.06
2013-2-5,76.8,44.4,25.7,53.0,31.1,21.8,94,67,21,30.49,30.32,8,2,15,0.01
2013-2-6,64.5,46.4,31.9,46.5,36.2,27.8,90,70,39,30.55,30.36,21,4,21,0.01
2013-2-7,56.6,51.9,45.1,51.8,47.6,36.7,87,85,71,30.47,30.24,22,4,22,0.17
2013-2-8,55.7,40.6,36.3,43.4,35.1,30.7,90,81,61,30.72,30.47,18,5,18,0.00
2013-2-9,51.3,41.3,35.0,43.1,35.7,29.6,88,80,61,30.64,30.24,20,4,20,0.11
2013-2-10,58.0,53.3,44.6,51.9,41.6,29.2,93,67,37,30.43,30.02,25,10,31,0.32
2013-2-11,63.4,41.7,30.4,40.3,30.5,24.0,87,67,37,30.62,30.45,5,1,12,0.04
2013-2-12,47.1,39.7,32.1,36.1,32.8,27.2,88,77,61,30.57,30.32,16,4,18,0.21
2013-2-13,53.2,41.3,35.3,42.1,34.5,29.2,92,78,53,30.46,30.35,18,4,18,0.02
2013-2-14,60.4,44.6,30.1,42.5,33.9,24.6,83,67,50,30.56,30.38,13,3,13,0.00
2013-2-15,46.1,37.9,23.8,35.5,25.2,12.2,81,61,35,30.79,30.55,17,5,17,0.02
2013-2-16,38.3,32.3,19.4,23.6,17.7,11.0,81,56,39,30.82,30.57,15,3,16,0.00
2013-2-17,64.0,43.7,28.8,32.2,21.1,11.3,67,42,24,30.58,30.21,19,5,29,0.00
2013-2-18,57.0,50.7,34.7,52.1,39.4,23.4,86,66,34,30.54,29.98,34,12,34,0.22
2013-2-19,46.0,33.6,20.2,23.7,19.5,13.6,82,58,35,30.76,30.54,20,3,20,0.00
2013-2-20,35.2,31.4,26.1,30.0,24.2,16.8,87,75,54,30.78,30.50,17,5,17,0.19
2013-2-21,36.8,34.7,30.9,34.2,30.9,26.9,92,86,75,30.51,30.11,24,6,24,0.34
2013-2-22,39.8,30.5,22.2,31.4,21.0,15.7,87,68,49,30.58,30.31,19,4,19,0.00
2013-2-23,45.4,30.6,17.3,25.8,19.2,12.8,87,65,39,30.57,30.39,12,1,12,0.00
2013-2-24,54.1,32.4,22.4,35.8,24.2,17.9,89,73,38,30.43,30.23,16,2,16,0.00
2013-2-25,43.3,39.2,34.7,38.9,33.3,27.7,90,80,59,30.26,29.82,28,10,28,0.32
2013-2-26,37.8,34.3,32.4,35.4,31.3,29.7,92,89,83,30.18,29.78,22,8,22,0.06
2013-2-27,42.8,36.3,33.1,32.0,29.4,27.5,85,76,57,30.44,30.30,24,8,24,0.00
2013-2-28,36.8,33.1,26.7,27.8,25.6,22.8,87,74,63,30.63,30.51,19,6,19,0.00
2013-3-1,33.5,30.3,26.6,24.0,21.0,17.4,79,68,59,30.73,30.60,21,6,21,0.00
2013-3-2,40.9,30.5,21.8,21.9,19.2,13.2,82,65,41,30.80,30.67,17,4,17,0.00
2013-3-3,59.9,41.7,20.2,29.2,23.3,13.6,82,52,27,30.67,30.15,22,5,22,0.00
2013-3-4,67.3,55.4,45.8,45.6,38.6,29.1,84,54,40,30.23,29.96,26,6,26,0.00
2013-3-5,46.7,39.4,31.3,35.1,24.8,16.6,88,58,34,30.77,30.23,30,9,30,0.04
2013-3-6,50.2,35.8,22.7,26.2,19.8,14.7,75,54,30,30.86,30.66,14,2,14,0.00
2013-3-7,66.3,48.5,30.6,29.0,25.1,20.5,77,44,18,30.71,30.55,21,4,21,0.00
2013-3-8,66.3,52.5,39.6,35.7,32.6,28.4,71,49,31,30.64,30.40,21,5,21,0.00
2013-3-9,69.8,59.9,53.6,56.1,43.8,33.2,89,57,42,30.41,30.07,28,8,28,0.42
2013-3-10,55.3,44.3,30.0,52.7,41.1,25.8,93,88,78,30.38,30.03,15,6,33,0.80
2013-3-11,46.0,35.8,27.8,28.2,23.4,18.9,85,63,36,30.50,30.35,20,6,21,0.00
2013-3-12,57.5,41.8,25.8,31.0,25.0,18.3,85,56,23,30.75,30.46,18,4,18,0.00
2013-3-13,55.9,38.4,22.1,22.9,18.5,14.1,79,48,22,30.92,30.74,14,2,14,0.00
2013-3-14,71.8,52.9,29.5,41.5,32.1,20.9,75,49,27,30.81,30.50,19,5,27,0.00
2013-3-15,55.6,53.4,49.8,43.3,42.3,40.2,74,66,60,30.50,30.42,6,2,6,0.00
2013-3-16,80.5,66.8,54.8,49.0,45.1,40.5,63,46,32,30.20,30.07,20,6,21,0.00
2013-3-17,54.8,47.5,42.2,47.0,42.3,36.5,93,83,60,30.24,30.05,22,7,22,0.07
2013-3-18,55.1,45.7,42.8,45.2,41.1,33.8,94,85,46,30.35,30.08,17,5,17,0.00
2013-3-19,62.9,47.2,29.1,32.3,23.9,13.9,87,46,18,30.66,30.45,16,4,16,0.00
2013-3-20,50.1,38.4,25.3,32.2,21.3,13.2,87,55,25,30.80,30.62,20,4,20,0.00
2013-3-21,44.9,35.9,30.7,33.7,26.0,9.7,90,71,25,30.54,30.23,17,7,20,0.27
2013-3-22,45.2,38.9,33.2,41.8,35.9,30.3,94,89,82,30.35,30.23,17,5,17,0.41
2013-3-23,37.9,37.4,36.8,35.7,34.7,33.4,92,90,88,30.33,30.26,13,5,13,0.00
2013-3-24,41.3,32.5,26.0,39.7,27.2,18.0,94,81,67,30.59,30.05,28,9,28,0.04
2013-3-25,34.1,28.3,23.3,25.4,20.0,16.8,81,71,61,30.81,30.58,21,6,21,0.00
2013-3-26,46.0,28.4,18.0,24.9,18.6,13.0,87,68,38,30.90,30.80,17,3,17,0.00
2013-3-27,63.2,42.9,22.4,32.6,22.5,17.5,87,52,19,30.79,30.57,11,3,20,0.00
2013-3-28,70.6,59.6,43.1,46.4,39.6,26.5,66,48,38,30.61,30.49,23,5,23,0.00
2013-3-29,67.8,57.9,52.5,57.9,51.2,44.2,93,79,64,30.58,30.46,13,2,13,0.68
2013-3-30,68.4,59.4,52.0,56.2,53.2,48.6,92,81,62,30.48,30.24,11,4,21,0.76
2013-3-31,66.8,56.8,51.3,53.5,50.2,44.4,93,80,49,30.34,30.22,15,4,24,0.01
2013-4-1,69.1,50.5,38.0,46.8,39.8,34.1,92,69,39,30.55,30.36,11,4,18,0.00
2013-4-2,44.5,39.0,35.9,37.4,34.6,32.1,91,84,69,30.69,30.55,12,9,20,0.35
2013-4-3,50.1,42.5,35.5,37.2,28.8,24.4,85,60,39,30.67,30.58,16,7,27,0.04
2013-4-4,59.2,48.7,40.8,40.2,34.4,27.8,85,60,31,30.57,30.46,14,2,15,0.05
2013-4-5,72.0,51.5,30.3,43.7,31.2,25.8,91,53,23,30.63,30.35,14,2,14,0.00
2013-4-6,75.8,62.4,53.9,46.9,40.5,33.1,66,46,29,30.36,30.15,32,7,34,0.00
2013-4-7,77.6,60.2,47.9,57.5,49.4,43.0,92,69,44,30.28,30.11,23,4,24,0.01
2013-4-8,65.2,63.5,62.3,55.4,53.5,52.8,78,70,66,30.13,30.07,11,3,11,0.05
2013-4-9,64.7,64.7,64.7,55.1,55.1,55.1,71,71,71,30.07,30.07,11,10,12,0.00
2013-4-10,73.9,48.3,38.2,64.1,44.5,35.5,92,87,65,30.33,30.04,23,6,27,1.06
2013-4-11,52.8,41.0,33.7,35.4,31.6,28.2,92,72,40,30.31,30.16,13,6,21,0.01
2013-4-12,59.3,47.3,31.8,37.5,31.4,27.5,87,56,34,30.44,30.23,25,4,25,1.06
2013-4-13,71.8,55.7,41.3,51.0,40.4,34.7,83,59,32,30.47,30.16,17,3,17,0.01
2013-4-14,80.1,69.2,58.9,51.3,46.0,41.4,62,45,27,30.17,29.87,30,8,30,0.00
2013-4-15,83.6,70.3,60.1,63.6,57.9,50.3,79,65,49,30.14,30.00,25,5,25,0.00
2013-4-16,84.5,67.4,55.3,64.0,56.6,49.8,87,70,46,30.32,30.12,21,3,21,0.00
2013-4-17,68.9,68.1,67.4,62.5,61.7,61.0,80,80,80,30.27,30.27,3,2,10,0.00
2013-4-18,75.1,56.7,40.8,64.8,50.7,33.2,92,81,65,30.30,29.86,33,9,33,2.53
2013-4-19,56.2,45.4,33.2,32.2,26.5,20.8,74,50,27,30.54,30.42,24,7,24,2.30
2013-4-20,69.4,52.1,33.4,41.2,32.3,25.8,89,53,20,30.62,30.49,14,2,14,0.00
2013-4-21,72.5,56.3,47.1,42.4,37.2,33.3,71,51,25,30.65,30.50,18,3,18,0.00
2013-4-22,76.7,62.6,51.0,44.3,38.8,34.7,61,43,27,30.57,30.26,27,5,27,0.00
2013-4-23,65.8,59.1,42.2,53.5,47.2,38.8,88,66,52,30.37,30.15,27,5,27,0.02
2013-4-24,56.2,43.7,34.7,34.1,30.1,23.6,89,63,29,30.74,30.51,9,4,18,0.01
2013-4-25,75.3,56.7,29.0,39.2,29.6,22.7,89,42,15,30.81,30.57,15,2,15,0.00
2013-4-26,59.0,53.5,49.5,49.8,44.0,33.2,91,73,38,30.70,30.50,18,6,23,0.54
2013-4-27,58.0,53.9,50.8,56.0,51.9,48.8,95,93,91,30.52,30.34,15,3,18,0.58
2013-4-28,51.0,50.6,49.8,49.3,48.7,47.7,94,93,92,30.43,30.38,5,0,5,0.00
2013-4-29,83.0,73.8,64.0,54.4,52.1,49.7,69,48,33,30.16,30.12,18,3,18,0.00
2013-4-30,84.3,71.0,57.8,56.9,50.0,40.1,83,52,24,30.21,30.13,23,5,23,0.00
2013-5-1,87.0,69.6,54.8,62.9,54.8,47.6,87,61,33,30.41,30.21,20,3,20,0.00
2013-5-2,62.6,49.8,34.6,56.1,45.4,31.8,90,85,78,30.69,30.37,20,5,20,0.61
2013-5-3,48.5,38.4,32.9,37.6,31.8,29.2,92,79,48,30.67,30.38,21,6,27,0.20
2013-5-4,45.7,40.2,35.8,38.0,34.9,32.7,91,82,71,30.43,30.27,17,4,17,0.22
2013-5-5,39.9,37.7,35.8,36.9,34.5,32.8,91,88,83,30.50,30.42,7,2,7,0.00
2013-5-6,65.5,55.8,48.2,52.9,48.7,43.3,90,78,58,30.48,30.39,14,3,14,0.00
2013-5-7,79.4,59.9,42.1,59.0,47.2,39.1,93,68,36,30.48,30.34,7,1,7,0.00
2013-5-8,81.8,67.3,51.3,58.1,53.1,47.6,91,63,36,30.40,30.24,10,3,21,0.00
2013-5-9,78.1,66.5,58.9,60.1,56.7,54.7,91,72,49,30.36,30.21,30,5,30,0.23
2013-5-10,70.8,63.0,57.6,61.5,57.0,51.8,95,82,58,30.42,30.24,8,3,16,0.32
2013-5-11,74.2,61.0,47.3,55.5,46.8,34.0,92,63,29,30.58,30.42,10,3,20,0.00
2013-5-12,69.4,55.0,38.8,45.9,38.3,29.8,89,58,26,30.67,30.54,6,1,13,0.32
2013-5-13,49.8,47.1,44.9,42.7,41.6,40.1,86,81,76,30.56,30.54,4,0,4,0.00
2013-5-14,87.8,75.4,62.9,54.0,50.6,46.5,65,43,25,30.43,30.30,21,6,25,0.00
2013-5-15,76.5,68.3,64.7,67.6,57.1,48.6,91,68,51,30.34,30.21,16,4,22,0.54
2013-5-16,64.8,63.8,63.2,61.2,59.7,58.5,88,86,84,30.21,30.18,12,3,12,0.01
2013-5-18,87.4,83.2,80.9,73.5,70.9,69.3,71,67,59,30.23,30.16,22,6,22,0.00
2013-5-19,88.8,78.6,73.3,69.4,64.7,58.5,87,65,37,30.16,29.97,25,8,33,0.00
2013-5-20,77.6,76.8,76.1,65.8,65.0,64.3,68,67,67,30.04,30.04,23,12,23,0.00
2013-5-21,64.8,61.6,59.8,60.4,58.3,56.0,93,89,77,30.30,29.95,27,4,27,1.31
2013-5-22,76.0,64.8,51.4,60.3,55.7,49.2,94,74,49,30.30,30.17,19,4,19,0.01
2013-5-23,62.1,56.9,54.2,56.2,52.7,50.4,90,86,81,30.38,30.29,2,0,2,0.00
2013-5-24,82.6,68.2,56.2,64.9,57.1,50.9,88,69,51,30.63,30.50,10,5,17,0.00
2013-5-25,84.0,73.6,59.9,66.5,58.7,48.9,76,60,47,30.58,30.40,18,4,18,0.00
2013-5-26,84.0,75.2,66.9,66.6,62.8,57.8,83,66,49,30.46,30.32,24,6,24,0.00
2013-5-27,85.1,76.3,69.1,66.8,64.3,59.2,85,67,49,30.33,30.14,26,8,26,0.00
2013-5-28,84.5,75.7,72.5,65.1,63.4,59.4,77,66,49,30.20,30.10,24,9,31,0.00
2013-5-29,82.2,76.1,71.1,66.0,63.5,62.0,79,65,55,30.23,30.09,29,9,29,0.00
2013-5-30,79.2,70.5,62.6,67.5,63.6,59.3,91,79,62,30.18,30.07,33,8,34,0.52
2013-5-31,86.1,77.6,63.1,71.0,68.3,59.3,92,74,58,30.16,29.96,20,7,28,0.00
2013-6-1,78.3,71.3,65.3,70.9,64.9,60.8,93,81,61,30.25,30.04,32,4,33,0.38
2013-6-2,62.1,58.8,56.0,54.5,53.2,51.9,87,82,76,30.39,30.37,6,2,6,0.00
2013-6-3,82.6,65.5,47.6,62.4,54.6,44.0,93,71,40,30.44,30.26,11,2,11,0.01
2013-6-4,81.8,70.3,62.4,67.2,60.5,56.2,84,72,55,30.34,30.24,16,3,16,0.00
2013-6-5,79.2,69.5,61.5,66.8,61.8,57.0,91,77,63,30.38,30.18,17,2,20,0.33
2013-6-6,74.6,66.9,59.0,63.3,58.7,53.1,93,76,61,30.30,30.23,12,2,14,0.00
2013-6-7,78.8,65.2,51.1,61.2,52.5,47.7,93,68,40,30.35,30.26,14,2,14,0.00
2013-6-8,80.3,61.4,52.2,60.9,52.8,47.8,92,76,42,30.31,30.27,4,1,13,0.00
2013-6-9,83.0,76.3,65.0,60.3,57.5,52.8,77,54,37,30.22,30.17,13,2,13,0.00
2013-6-10,91.4,75.3,62.3,68.5,61.8,56.2,84,65,35,30.26,30.19,13,3,22,0.00
2013-6-11,93.2,81.3,74.6,68.5,65.9,63.4,73,61,39,30.31,30.22,19,5,21,0.00
2013-6-12,91.8,83.1,75.8,70.1,68.3,64.8,77,62,43,30.31,30.22,31,8,31,0.00
2013-6-13,93.2,81.5,72.3,73.1,68.5,63.0,87,66,43,30.33,30.24,12,2,12,0.00
2013-6-14,74.0,71.1,69.4,68.1,65.6,64.2,87,83,75,30.33,30.26,7,2,7,0.00
2013-6-22,90.5,88.5,85.1,71.8,69.4,65.4,60,54,46,30.38,30.27,18,7,18,0.00
2013-6-23,91.6,82.4,75.4,71.5,68.2,64.8,81,63,44,30.32,30.22,13,6,26,0.00
2013-6-24,89.5,80.5,74.7,71.2,68.5,66.6,79,68,49,30.37,30.30,20,6,20,0.00
2013-6-27,87.2,85.0,83.6,73.6,72.8,71.9,72,67,61,30.20,30.17,8,2,8,0.00
2013-6-28,83.6,80.2,76.3,73.8,71.7,67.7,81,75,72,30.21,30.11,14,3,14,0.00
2013-6-29,87.8,79.3,62.1,61.1,53.4,46.2,87,44,27,30.21,30.13,24,6,24,0.00
2013-6-30,79.2,70.9,62.6,61.1,57.2,53.0,83,63,46,30.30,30.16,20,4,20,0.00
2013-7-1,84.0,71.2,58.6,61.3,54.0,43.5,89,58,29,30.38,30.29,23,4,23,0.00
2013-7-2,63.2,56.2,52.3,53.4,50.2,47.9,90,80,67,30.44,30.37,3,0,3,0.00
2013-7-3,85.9,70.6,52.2,59.7,50.8,44.1,90,55,24,30.46,30.34,6,1,15,0.00
2013-7-4,89.0,75.1,57.6,60.7,55.0,49.8,87,53,29,30.41,30.30,14,2,14,0.00
2013-7-5,90.7,75.6,59.3,61.9,56.5,51.1,87,56,28,30.38,30.25,18,2,18,0.00
2013-7-6,92.3,75.1,61.6,65.3,58.2,52.0,85,59,31,30.36,30.27,11,2,13,0.01
2013-7-10,94.5,83.8,77.6,69.3,66.8,64.5,71,57,43,30.27,30.19,15,2,15,0.00
2013-7-11,97.3,84.2,70.3,74.0,66.6,56.1,88,59,28,30.31,30.22,13,2,13,0.00
2013-7-12,91.4,77.0,68.8,71.3,64.3,60.7,78,66,46,30.36,30.28,14,3,14,0.00
2013-7-13,91.6,78.1,62.4,64.1,58.8,55.3,83,54,33,30.37,30.28,11,2,12,0.00
2013-7-14,82.4,70.8,63.7,62.2,58.7,56.6,82,66,50,30.37,30.28,11,1,11,0.00
2013-7-15,90.7,80.0,69.8,68.8,64.9,60.3,82,61,41,30.49,30.35,11,4,21,0.01
2013-7-16,81.1,72.2,68.8,70.5,67.6,65.4,91,86,68,30.57,30.48,12,1,19,0.01
2013-7-23,92.3,83.5,72.3,73.8,70.7,68.4,89,67,48,30.22,30.09,24,5,24,1.00
2013-7-24,72.5,70.4,68.3,69.1,67.3,64.6,92,90,88,30.31,30.14,26,5,26,0.38
2013-7-25,87.0,77.4,67.3,72.3,68.0,63.6,93,74,50,30.41,30.33,7,1,11,0.00
2013-7-26,74.6,72.6,71.5,70.4,68.4,66.9,91,87,81,30.38,30.31,9,2,12,0.65
2013-8-3,69.1,69.1,69.1,66.1,66.1,66.1,90,90,90,30.43,30.43,11,7,11,0.70
2013-8-8,85.5,79.1,75.6,74.0,72.4,71.4,88,80,68,30.26,30.20,8,2,8,2.08
2013-8-9,84.3,76.2,70.1,72.2,69.9,66.9,92,82,61,30.35,30.22,15,2,18,0.24
2013-8-10,84.9,77.4,72.3,75.1,70.5,68.2,92,80,66,30.42,30.35,15,4,15,0.06
2013-8-11,87.8,76.9,70.3,75.8,69.9,66.9,92,80,56,30.43,30.34,13,3,13,0.00
2013-8-12,86.5,77.0,71.8,74.3,70.7,67.9,91,82,62,30.39,30.28,14,1,29,0.35
2013-8-13,81.1,74.0,72.1,73.8,70.4,66.9,94,89,75,30.39,30.30,17,2,17,0.98
2013-8-22,88.6,86.1,84.1,69.3,68.1,66.4,58,55,52,30.36,30.35,4,1,4,0.00
2013-8-28,92.5,91.7,90.5,68.4,67.4,66.1,46,45,44,30.34,30.34,12,5,12,0.00
2013-9-28,82.4,71.4,63.1,68.2,64.4,59.8,93,80,57,30.39,30.25,24,5,24,1.00
2013-9-29,77.6,65.0,57.6,66.2,59.4,54.7,93,83,55,30.42,30.28,11,3,14,0.05
2013-10-5,65.6,64.9,64.5,62.0,61.8,61.5,91,90,87,30.30,30.24,13,2,13,1.87
2013-10-9,77.7,64.6,51.7,50.6,47.8,44.5,80,57,33,30.45,30.41,7,1,7,0.00
2013-10-10,51.6,47.7,44.3,46.0,43.6,41.0,89,86,81,30.48,30.43,2,0,2,0.00
2013-10-18,64.3,49.3,37.9,52.5,43.5,35.0,93,81,57,30.48,30.36,8,2,17,0.26
2013-10-19,58.0,45.8,36.8,42.9,37.4,33.9,91,75,42,30.57,30.44,8,3,15,0.06
2013-10-20,68.1,51.2,33.5,45.1,37.8,30.6,93,64,31,30.46,30.29,10,3,20,0.00
2013-10-21,55.0,47.7,38.8,49.8,42.8,34.7,91,83,72,30.53,30.34,6,1,16,0.18
2013-10-22,66.3,48.7,31.6,46.3,38.1,28.7,93,70,44,30.52,30.35,12,3,22,0.01
2013-10-23,64.2,46.8,33.7,42.2,35.3,29.4,90,68,28,30.61,30.43,5,1,10,0.00
2013-10-24,57.5,48.5,36.5,40.3,34.0,27.4,90,59,39,30.83,30.60,19,5,19,0.00
2013-10-25,36.3,33.8,32.2,30.3,28.3,27.1,83,80,70,30.91,30.83,11,2,11,0.00
2013-10-26,53.2,46.9,43.9,42.3,36.7,31.7,73,67,60,30.62,30.58,12,2,13,0.00
2013-10-27,68.6,58.9,47.0,44.2,40.9,37.2,72,53,34,30.42,30.36,11,1,11,0.00
2013-10-28,67.3,58.6,48.9,56.0,51.5,45.2,91,78,57,30.55,30.40,6,2,12,0.00
2013-10-29,70.8,65.2,55.6,63.1,59.9,52.1,90,83,75,30.51,30.33,11,6,26,0.10
2013-10-30,68.3,65.1,62.1,64.1,61.4,58.2,90,88,81,30.38,30.15,21,4,21,0.82
2013-10-31,73.2,64.1,53.5,64.7,58.0,43.6,93,82,40,30.15,29.83,32,7,32,0.30
2013-11-1,68.9,54.7,44.3,46.6,41.6,34.8,89,65,29,30.40,30.14,11,3,20,0.01
2013-11-2,57.2,46.5,34.9,40.6,35.5,29.4,89,67,46,30.66,30.39,19,3,19,0.00
2013-11-3,34.7,32.5,31.3,29.8,28.7,27.8,88,85,81,30.65,30.62,4,0,4,0.00
2013-11-4,57.3,53.9,51.3,51.3,44.7,39.7,87,71,62,30.54,30.38,12,7,29,0.02
2013-11-5,62.0,58.0,55.0,57.2,54.9,51.2,92,89,84,30.53,30.36,21,4,21,0.41
2013-11-11,64.8,57.1,44.3,51.9,48.2,39.6,86,73,58,30.79,30.56,23,5,23,0.00
2013-11-12,44.1,34.4,22.1,39.6,23.5,12.7,84,66,34,31.18,30.79,23,6,23,0.00
2013-11-13,50.4,32.8,16.7,24.8,15.7,12.2,87,54,22,31.18,30.77,13,2,13,0.00
2013-11-14,55.6,38.8,21.6,27.5,19.7,15.2,84,51,24,30.76,30.50,19,4,20,0.00
2013-11-16,70.6,67.3,63.9,59.0,57.4,55.7,81,71,63,30.04,29.99,26,11,26,0.01
2013-11-17,75.3,64.3,42.8,64.0,42.5,20.4,80,50,20,30.48,29.90,16,8,31,0.00
2013-11-18,66.0,47.5,31.9,39.3,27.4,17.8,86,51,16,30.69,30.46,9,2,16,0.00
2013-11-19,63.4,50.6,39.2,29.7,21.1,7.7,62,34,17,30.67,30.42,12,5,21,0.00
2013-11-20,62.0,54.7,44.1,43.3,23.9,3.7,64,32,14,30.44,30.29,12,5,24,0.04
2013-11-21,55.4,52.1,48.9,52.2,48.8,43.3,93,89,69,30.54,30.38,8,2,17,0.86
2013-11-22,44.8,33.9,31.9,42.9,31.4,28.4,93,90,88,30.96,30.65,14,6,18,0.02
2013-11-23,38.6,32.7,24.2,29.3,22.4,11.2,89,68,36,31.12,30.95,18,6,18,0.00
2013-11-24,31.8,24.7,19.7,16.6,13.3,11.2,72,62,47,31.16,30.85,13,5,15,0.00
2013-11-25,36.6,34.1,29.8,29.8,24.9,11.2,81,70,40,30.79,30.61,10,2,15,0.01
2013-11-26,39.5,34.2,33.1,29.7,28.7,27.7,82,80,64,30.64,30.57,15,2,15,0.00
2013-11-27,37.9,26.2,17.0,16.5,11.3,7.5,72,55,29,30.91,30.77,8,2,18,0.00
2013-11-28,53.8,36.8,16.5,26.6,20.1,10.6,82,54,32,30.90,30.75,16,3,16,0.00
2013-11-29,45.7,24.7,19.9,36.7,20.0,15.9,90,82,55,30.99,30.89,5,0,5,0.00
2013-12-4,48.5,40.0,34.0,42.6,35.6,29.2,85,84,80,30.36,30.13,15,6,15,0.00
2013-12-5,33.8,25.7,20.5,29.2,20.1,15.4,87,79,62,30.73,30.36,19,6,19,0.00
2013-12-6,21.9,19.0,16.7,17.3,14.2,8.1,87,81,69,31.04,30.69,16,5,16,0.00
2013-12-7,27.0,15.2,6.0,12.1,5.3,-1.1,75,65,39,31.14,30.75,18,5,20,0.02
2013-12-8,29.3,25.7,21.1,25.9,20.9,10.8,89,82,64,30.76,30.47,15,3,15,0.00
2013-12-9,27.9,24.2,21.0,25.1,16.9,13.2,89,74,59,30.81,30.64,10,4,16,0.02
2013-12-10,35.9,22.6,12.4,15.6,12.9,7.1,86,68,38,30.94,30.76,18,2,18,0.14
2013-12-11,36.5,24.9,14.6,27.0,16.8,8.0,89,72,51,31.11,30.75,8,2,15,0.15
2013-12-12,41.2,27.3,9.9,23.5,14.5,5.0,87,61,33,31.08,30.73,11,2,16,0.11
2013-12-13,37.9,35.0,24.5,34.3,27.3,18.6,89,74,47,30.73,30.27,19,3,19,0.32
2013-12-14,36.3,31.4,24.2,34.4,28.2,19.2,93,88,78,30.71,30.25,19,5,19,0.25
2013-12-15,50.7,31.9,16.2,32.5,23.0,12.2,90,72,46,30.74,30.59,16,2,16,0.06
2013-12-18,61.2,56.3,54.1,38.8,36.4,33.9,54,47,36,30.46,30.33,25,7,25,0.00
2013-12-19,63.4,57.0,52.8,55.7,47.7,37.7,80,71,53,30.33,30.08,30,10,30,0.00
2013-12-20,64.5,48.2,33.8,57.7,43.4,31.2,92,84,67,30.28,30.06,24,6,24,0.29
2013-12-21,42.8,37.7,32.9,41.5,36.1,30.8,96,94,92,30.21,29.89,21,4,21,1.36
2013-12-22,34.4,29.6,26.1,32.9,26.1,20.8,97,87,80,30.82,30.14,20,6,20,0.00
2013-12-23,29.0,24.6,17.5,22.1,19.2,12.8,83,80,72,31.06,30.82,12,3,12,0.00
2013-12-24,42.8,23.4,14.8,27.3,17.5,10.6,89,79,53,31.05,30.79,18,4,18,0.01
2013-12-28,53.3,51.0,49.9,34.5,33.5,33.0,53,51,46,30.61,30.57,13,6,13,0.01
2013-12-29,41.1,29.9,22.7,36.7,23.6,15.1,87,77,71,30.73,30.34,18,5,18,0.00
2013-12-30,39.2,25.7,15.1,23.4,17.1,9.2,83,70,50,30.83,30.66,7,3,14,0.00
2013-12-31,55.7,35.2,16.4,33.2,20.3,12.0,87,60,27,30.87,30.57,12,3,20,0.00
2014-1-1,50.5,35.2,24.8,29.0,22.8,18.3,76,61,35,30.57,30.39,22,6,23,0.00
2014-1-2,27.8,19.0,12.1,18.2,10.1,4.6,82,68,48,30.98,30.56,22,6,22,0.00